Time;durP1;ratioP1;P1;durP2;ratioP2;P2;SDS_P1;SDS_P2;PMS_P1;PMS_P2;Temp;Humidity;BMP_temperature;BMP_pressure;BME280_temperature;BME280_humidity;BME280_pressure;Samples;Min_cycle;Max_cycle;Signal;HPM_P1;HPM_P2
2023/06/02 00:01:31;;;;;;;2.33;1.75;;;16.10;99.90;;;;;;5125817;28;20679;-68
2023/06/02 00:04:05;;;;;;;2.00;1.80;;;16.20;1.00;;;;;;5171644;28;20048;-68
2023/06/02 00:06:37;;;;;;;2.50;1.70;;;16.10;1.00;;;;;;5208852;28;20057;-67
2023/06/02 00:09:11;;;;;;;2.13;1.92;;;16.10;1.00;;;;;;5245254;28;20036;-67
2023/06/02 00:11:46;;;;;;;5.00;2.28;;;16.20;99.90;;;;;;5234365;28;20039;-68
2023/06/02 00:14:18;;;;;;;2.85;2.05;;;16.20;99.90;;;;;;5232124;28;20417;-68
2023/06/02 00:16:51;;;;;;;2.15;1.60;;;16.20;99.90;;;;;;5230354;28;20035;-67
2023/06/02 00:19:23;;;;;;;2.00;1.73;;;16.30;99.90;;;;;;5232868;28;20029;-67
2023/06/02 00:21:57;;;;;;;2.00;1.85;;;16.30;99.90;;;;;;5215330;28;20025;-67
2023/06/02 00:24:35;;;;;;;3.10;1.57;;;16.20;99.90;;;;;;5231821;28;20047;-67
2023/06/02 00:27:16;;;;;;;2.08;1.60;;;16.20;99.90;;;;;;5217937;28;20229;-69
2023/06/02 00:29:52;;;;;;;3.47;2.22;;;16.10;1.00;;;;;;5113740;28;20039;-68
2023/06/02 00:32:23;;;;;;;2.22;2.03;;;15.90;1.00;;;;;;5124451;28;20043;-68
2023/06/02 00:34:54;;;;;;;3.72;1.92;;;15.90;1.00;;;;;;5094767;28;20272;-67
2023/06/02 00:37:26;;;;;;;2.70;2.08;;;16.00;1.00;;;;;;5112271;28;20052;-67
2023/06/02 00:40:02;;;;;;;2.75;2.35;;;16.20;1.00;;;;;;5111598;28;20035;-69
2023/06/02 00:42:34;;;;;;;2.78;1.80;;;16.30;1.00;;;;;;5110156;28;20031;-68
2023/06/02 00:45:11;;;;;;;1.90;1.58;;;16.20;1.00;;;;;;5136420;28;20035;-69
2023/06/02 00:47:46;;;;;;;3.22;1.77;;;16.20;1.00;;;;;;5214913;28;20028;-68
2023/06/02 00:50:18;;;;;;;1.80;1.70;;;16.10;1.00;;;;;;5230981;28;20036;-68
2023/06/02 00:52:59;;;;;;;1.95;1.73;;;16.10;99.90;;;;;;5215134;28;20314;-69
2023/06/02 00:55:33;;;;;;;2.88;1.92;;;15.90;1.00;;;;;;5215931;28;20021;-69
2023/06/02 00:58:07;;;;;;;3.42;2.05;;;15.80;1.00;;;;;;5175967;28;20380;-67
2023/06/02 01:00:40;;;;;;;3.58;2.40;;;16.00;1.00;;;;;;5123557;28;20042;-67
2023/06/02 01:03:16;;;;;;;2.00;1.80;;;16.00;1.00;;;;;;5172141;23;20055;-68
2023/06/02 01:06:00;;;;;;;2.53;2.28;;;16.10;1.00;;;;;;5167375;28;20383;-69
2023/06/02 01:08:37;;;;;;;2.17;1.80;;;16.00;1.00;;;;;;5119245;28;20292;-69
2023/06/02 01:11:10;;;;;;;2.55;1.73;;;15.70;1.00;;;;;;5169752;28;20024;-68
2023/06/02 01:13:44;;;;;;;1.95;1.85;;;15.50;99.90;;;;;;5197805;28;20032;-68
2023/06/02 01:16:17;;;;;;;2.63;1.83;;;15.40;1.00;;;;;;5195369;28;20047;-68
2023/06/02 01:18:52;;;;;;;3.63;2.03;;;15.20;1.00;;;;;;5214099;28;20028;-69
2023/06/02 01:21:28;;;;;;;2.75;2.53;;;15.00;99.90;;;;;;5189516;28;20209;-68
2023/06/02 01:24:01;;;;;;;3.15;2.38;;;14.90;99.90;;;;;;5197539;28;20272;-68
2023/06/02 01:26:36;;;;;;;3.22;2.53;;;14.80;1.00;;;;;;5215960;28;20222;-69
2023/06/02 01:29:13;;;;;;;2.40;1.90;;;14.70;1.00;;;;;;5161300;28;20023;-68
2023/06/02 01:31:49;;;;;;;2.50;2.10;;;14.60;99.90;;;;;;5109712;29;20037;-67
2023/06/02 01:35:06;;;;;;;2.50;2.30;;;14.60;99.90;;;;;;5185215;28;20023;-67
2023/06/02 01:37:49;;;;;;;2.47;2.22;;;14.40;99.90;;;;;;5211618;28;20278;-67
2023/06/02 01:40:29;;;;;;;2.42;2.20;;;14.40;99.90;;;;;;5106320;28;20049;-67
2023/06/02 01:43:07;;;;;;;3.22;2.35;;;14.30;99.90;;;;;;5111166;29;20027;-67
2023/06/02 01:45:46;;;;;;;4.13;2.15;;;14.20;99.90;;;;;;5075834;29;20039;-68
2023/06/02 01:48:19;;;;;;;3.42;2.50;;;14.30;99.90;;;;;;5077957;29;20043;-67
2023/06/02 01:50:51;;;;;;;2.67;2.10;;;14.20;99.90;;;;;;5089689;28;20065;-67
2023/06/02 01:53:26;;;;;;;3.42;2.15;;;14.10;1.00;;;;;;5156059;28;20390;-67
2023/06/02 01:56:00;;;;;;;2.25;2.05;;;14.10;1.00;;;;;;5181393;28;20025;-67
2023/06/02 01:58:34;;;;;;;3.03;2.63;;;14.00;1.00;;;;;;5166359;28;20045;-68
2023/06/02 02:01:05;;;;;;;2.88;2.35;;;14.00;1.00;;;;;;5098524;28;20015;-68
2023/06/02 02:03:38;;;;;;;4.03;2.78;;;14.00;1.00;;;;;;5197038;28;20055;-67
2023/06/02 02:06:15;;;;;;;2.97;2.70;;;14.00;1.00;;;;;;5170620;28;20059;-68
2023/06/02 02:08:46;;;;;;;2.45;2.25;;;14.00;1.00;;;;;;5196156;28;20036;-67
2023/06/02 02:11:18;;;;;;;2.90;2.53;;;14.00;1.00;;;;;;5196514;28;20067;-67
2023/06/02 02:13:57;;;;;;;2.03;1.83;;;13.90;1.00;;;;;;5177957;28;20041;-68
2023/06/02 02:16:31;;;;;;;3.47;2.60;;;13.90;1.00;;;;;;5090658;29;20043;-67
2023/06/02 02:19:07;;;;;;;3.30;2.63;;;13.90;1.00;;;;;;5077450;29;20027;-68
2023/06/02 02:21:40;;;;;;;3.05;2.75;;;13.80;1.00;;;;;;5093121;29;20072;-67
2023/06/02 02:24:16;;;;;;;3.35;2.47;;;13.90;1.00;;;;;;5093501;29;20082;-67
2023/06/02 02:26:50;;;;;;;3.35;2.35;;;13.90;1.00;;;;;;5093591;28;20038;-67
2023/06/02 02:29:24;;;;;;;4.85;1.98;;;13.80;1.00;;;;;;5195681;28;20037;-67
2023/06/02 02:31:56;;;;;;;2.92;2.25;;;13.80;1.00;;;;;;5194071;28;20029;-67
2023/06/02 02:34:32;;;;;;;2.92;2.55;;;13.80;1.00;;;;;;5197023;28;20586;-66
2023/06/02 02:37:06;;;;;;;2.90;2.60;;;13.70;1.00;;;;;;5123463;28;20057;-67
2023/06/02 02:39:38;;;;;;;2.53;2.22;;;13.70;1.00;;;;;;5181373;28;20043;-66
2023/06/02 02:42:15;;;;;;;4.13;2.40;;;13.80;1.00;;;;;;5197912;28;20025;-67
2023/06/02 02:44:49;;;;;;;5.53;2.40;;;13.80;1.00;;;;;;5200303;28;20029;-67
2023/06/02 02:47:21;;;;;;;2.85;2.60;;;13.80;1.00;;;;;;5203401;28;20043;-68
2023/06/02 02:49:53;;;;;;;2.72;2.33;;;13.80;1.00;;;;;;5204505;28;20035;-67
2023/06/02 02:52:27;;;;;;;3.17;2.83;;;13.80;1.00;;;;;;5120230;28;20042;-66
2023/06/02 02:54:58;;;;;;;2.70;2.50;;;13.80;1.00;;;;;;5086825;28;20343;-70
2023/06/02 02:57:31;;;;;;;2.78;2.55;;;13.80;1.00;;;;;;5114547;28;20046;-67
2023/06/02 03:00:08;;;;;;;2.38;2.17;;;13.80;1.00;;;;;;5093435;28;20589;-68
2023/06/02 03:02:40;;;;;;;2.75;2.17;;;13.90;1.00;;;;;;5106333;28;20049;-68
2023/06/02 03:05:13;;;;;;;3.42;3.13;;;13.90;1.00;;;;;;5179003;28;20386;-68
2023/06/02 03:07:49;;;;;;;5.82;3.03;;;14.00;1.00;;;;;;5163385;28;20035;-68
2023/06/02 03:10:23;;;;;;;3.05;2.20;;;14.10;1.00;;;;;;5191538;28;20343;-68
2023/06/02 03:12:55;;;;;;;4.72;2.47;;;14.10;1.00;;;;;;5131779;28;20572;-68
2023/06/02 03:15:28;;;;;;;2.35;2.10;;;14.20;1.00;;;;;;5119312;28;20066;-68
2023/06/02 03:18:00;;;;;;;3.13;2.38;;;14.20;1.00;;;;;;5131580;28;20046;-68
2023/06/02 03:20:32;;;;;;;2.10;2.00;;;14.20;1.00;;;;;;5130877;28;20058;-67
2023/06/02 03:23:03;;;;;;;2.72;2.10;;;14.20;1.00;;;;;;5096957;28;20404;-68
2023/06/02 03:25:40;;;;;;;3.67;2.78;;;14.30;1.00;;;;;;5099903;28;20046;-69
2023/06/02 03:28:12;;;;;;;3.15;2.75;;;14.50;1.00;;;;;;5155514;28;20500;-67
2023/06/02 03:30:45;;;;;;;3.42;2.83;;;14.50;1.00;;;;;;5197348;28;20041;-68
2023/06/02 03:33:17;;;;;;;3.35;2.30;;;14.70;1.00;;;;;;5199990;28;20029;-68
2023/06/02 03:35:58;;;;;;;2.80;2.60;;;14.80;1.00;;;;;;5182657;28;20035;-68
2023/06/02 03:38:30;;;;;;;3.05;2.72;;;15.00;99.90;;;;;;5167565;28;20033;-68
2023/06/02 03:41:03;;;;;;;2.53;2.28;;;15.20;99.90;;;;;;5096665;28;20043;-68
2023/06/02 03:43:35;;;;;;;3.53;2.63;;;15.30;99.90;;;;;;5109703;28;20045;-68
2023/06/02 03:46:06;;;;;;;3.35;2.65;;;15.50;99.90;;;;;;5093102;29;20051;-68
2023/06/02 03:48:41;;;;;;;2.70;2.50;;;15.60;99.90;;;;;;5110716;28;20047;-68
2023/06/02 03:51:14;;;;;;;;;;;15.90;99.90;;;;;;5095788;29;20046;-69
2023/06/02 03:53:52;;;;;;;2.97;2.50;;;16.20;99.90;;;;;;5110327;29;19917;-69
2023/06/02 03:56:29;;;;;;;3.53;3.13;;;16.40;92.60;;;;;;5097358;29;20027;-70
2023/06/02 03:59:07;;;;;;;3.10;2.33;;;16.70;1.00;;;;;;5121243;28;20039;-67
2023/06/02 04:01:44;;;;;;;3.20;2.70;;;16.90;1.00;;;;;;5098635;28;20047;-69
2023/06/02 04:04:15;;;;;;;3.67;2.55;;;17.10;1.00;;;;;;5106540;28;20034;-69
2023/06/02 04:06:47;;;;;;;3.28;2.50;;;17.30;1.00;;;;;;5115802;28;20026;-69
2023/06/02 04:09:23;;;;;;;3.10;2.80;;;17.60;1.00;;;;;;5134238;28;20238;-68
2023/06/02 04:11:55;;;;;;;3.08;2.78;;;17.80;1.00;;;;;;5117516;28;20232;-69
2023/06/02 04:14:33;;;;;;;3.38;2.90;;;17.80;1.00;;;;;;5132091;28;20240;-68
2023/06/02 04:17:08;;;;;;;4.30;2.33;;;17.90;1.00;;;;;;5127997;28;20339;-69
2023/06/02 04:19:40;;;;;;;2.35;2.03;;;18.00;1.00;;;;;;5131860;28;20023;-67
2023/06/02 04:22:13;;;;;;;2.53;2.33;;;18.30;99.90;;;;;;5129934;28;20654;-68
2023/06/02 04:24:54;;;;;;;4.03;2.35;;;18.50;99.90;;;;;;5113280;28;20041;-68
2023/06/02 04:27:27;;;;;;;3.30;2.42;;;18.90;99.90;;;;;;5115741;28;20053;-68
2023/06/02 04:29:58;;;;;;;3.58;2.22;;;19.20;59.80;;;;;;5078306;29;20114;-67
2023/06/02 04:32:30;;;;;;;3.55;2.45;;;19.40;1.00;;;;;;5107499;28;20038;-69
2023/06/02 04:35:02;;;;;;;3.40;2.80;;;19.40;1.00;;;;;;5109977;29;20263;-69
2023/06/02 04:37:37;;;;;;;2.50;2.30;;;19.50;1.00;;;;;;5111439;28;20243;-67
2023/06/02 04:40:08;;;;;;;2.58;2.38;;;19.60;1.00;;;;;;5093705;29;20393;-67
2023/06/02 04:42:43;;;;;;;3.65;2.22;;;19.60;99.90;;;;;;5093235;29;20039;-68
2023/06/02 04:45:16;;;;;;;2.60;2.40;;;19.60;99.90;;;;;;5195682;28;20395;-67
2023/06/02 04:47:47;;;;;;;2.78;2.08;;;19.80;99.90;;;;;;5114728;28;20134;-67
2023/06/02 04:50:23;;;;;;;3.95;2.30;;;19.80;58.50;;;;;;5098206;28;20035;-70
2023/06/02 04:53:01;;;;;;;5.25;2.50;;;19.90;1.00;;;;;;5087911;28;20630;-69
2023/06/02 04:55:35;;;;;;;2.67;2.10;;;19.90;1.00;;;;;;5133247;28;20044;-68
2023/06/02 04:58:07;;;;;;;;;;;19.90;1.00;;;;;;5157484;28;20054;-68
2023/06/02 05:00:38;;;;;;;2.35;2.15;;;20.10;1.00;;;;;;5189969;28;19910;-69
2023/06/02 05:03:10;;;;;;;2.67;2.20;;;20.30;1.00;;;;;;5099989;28;20046;-68
2023/06/02 05:05:44;;;;;;;2.35;2.10;;;20.30;99.90;;;;;;5190807;28;20084;-69
2023/06/02 05:08:21;;;;;;;2.45;1.83;;;20.50;65.20;;;;;;5148543;28;20033;-69
2023/06/02 05:10:53;;;;;;;2.90;2.40;;;20.50;99.90;;;;;;5168183;28;20446;-68
2023/06/02 05:13:28;;;;;;;2.83;2.33;;;20.90;1.00;;;;;;5159229;28;20039;-68
2023/06/02 05:16:03;;;;;;;2.53;2.20;;;21.10;1.00;;;;;;5105055;28;20038;-68
2023/06/02 05:18:34;;;;;;;6.10;2.50;;;21.40;1.00;;;;;;5100548;28;20240;-69
2023/06/02 05:21:06;;;;;;;1.98;1.73;;;21.60;99.90;;;;;;5145910;28;20385;-69
2023/06/02 05:23:41;;;;;;;2.65;2.20;;;21.80;99.90;;;;;;5109677;29;20023;-68
2023/06/02 05:26:15;;;;;;;2.28;2.00;;;21.90;1.00;;;;;;5105813;28;20035;-68
2023/06/02 05:28:50;;;;;;;;;;;22.40;1.00;;;;;;5164423;28;20054;-68
2023/06/02 05:31:26;;;;;;;4.25;1.98;;;22.70;1.00;;;;;;5208760;28;20180;-69
2023/06/02 05:34:03;;;;;;;3.20;2.20;;;21.90;1.00;;;;;;5193830;28;20040;-70
2023/06/02 05:36:39;;;;;;;2.47;2.25;;;21.70;1.00;;;;;;5194896;28;20516;-67
2023/06/02 05:39:11;;;;;;;4.03;2.47;;;21.10;1.00;;;;;;5195175;28;20045;-68
2023/06/02 05:41:44;;;;;;;2.25;1.75;;;21.40;1.00;;;;;;5160372;28;20065;-67
2023/06/02 05:44:15;;;;;;;2.45;1.73;;;21.80;1.00;;;;;;5089379;29;20032;-67
2023/06/02 05:46:53;;;;;;;2.05;1.70;;;21.50;1.00;;;;;;5100190;28;20436;-68
2023/06/02 05:49:32;;;;;;;5.55;3.10;;;21.40;1.00;;;;;;5173353;28;20039;-68
2023/06/02 05:52:03;;;;;;;2.30;1.85;;;21.30;1.00;;;;;;5109656;29;20347;-69
2023/06/02 05:54:35;;;;;;;2.35;2.03;;;21.00;1.00;;;;;;5165739;28;20041;-68
2023/06/02 05:57:10;;;;;;;2.83;2.10;;;21.00;1.00;;;;;;5182208;28;20033;-68
2023/06/02 05:59:41;;;;;;;3.92;2.42;;;21.00;1.00;;;;;;5196540;28;20033;-67
2023/06/02 06:02:16;;;;;;;3.35;2.30;;;21.20;1.00;;;;;;5180399;28;20021;-69
2023/06/02 06:04:49;;;;;;;2.35;2.00;;;21.60;1.00;;;;;;5170106;28;20044;-69
2023/06/02 06:07:20;;;;;;;2.53;2.00;;;21.70;1.00;;;;;;5180111;28;20032;-68
2023/06/02 06:09:54;;;;;;;2.28;2.08;;;21.60;99.90;;;;;;5196916;28;20729;-71
2023/06/02 06:12:28;;;;;;;2.63;1.98;;;21.80;99.90;;;;;;5218287;28;20490;-68
2023/06/02 06:15:00;;;;;;;2.25;2.05;;;21.70;99.90;;;;;;5224151;28;20024;-68
2023/06/02 06:17:39;;;;;;;3.08;2.20;;;21.80;99.90;;;;;;5201475;28;20059;-67
2023/06/02 06:20:11;;;;;;;3.58;2.22;;;22.00;99.90;;;;;;5160692;28;20048;-67
2023/06/02 06:22:48;;;;;;;3.15;2.72;;;21.90;99.90;;;;;;5150992;28;20031;-68
2023/06/02 06:25:19;;;;;;;2.35;2.15;;;22.00;99.90;;;;;;5171923;28;20025;-68
2023/06/02 06:27:51;;;;;;;2.28;2.08;;;22.00;99.90;;;;;;5148454;28;20031;-68
2023/06/02 06:30:22;;;;;;;2.05;1.77;;;21.80;78.70;;;;;;5104476;28;20058;-68
2023/06/02 06:32:57;;;;;;;2.00;1.80;;;21.90;99.90;;;;;;5124049;28;20031;-67
2023/06/02 06:35:28;;;;;;;3.35;2.35;;;21.70;99.90;;;;;;5119611;28;20030;-67
2023/06/02 06:38:01;;;;;;;3.88;2.53;;;21.40;99.90;;;;;;5117810;28;20046;-67
2023/06/02 06:40:33;;;;;;;2.50;2.30;;;21.30;99.90;;;;;;5125612;28;20031;-67
2023/06/02 06:43:04;;;;;;;2.80;2.05;;;21.40;14.20;;;;;;5108712;28;20038;-67
2023/06/02 06:45:38;;;;;;;4.05;2.08;;;21.70;75.00;;;;;;5161070;28;20037;-68
2023/06/02 06:48:10;;;;;;;3.43;2.37;;;21.70;1.00;;;;;;5107004;28;20035;-67
2023/06/02 06:50:41;;;;;;;4.95;2.35;;;21.60;1.00;;;;;;5142363;28;20025;-66
2023/06/02 06:53:12;;;;;;;2.10;1.90;;;21.40;1.00;;;;;;5122219;28;20045;-67
2023/06/02 06:55:49;;;;;;;2.65;2.00;;;21.20;1.00;;;;;;5147075;28;20039;-67
2023/06/02 06:58:20;;;;;;;2.72;2.00;;;21.10;1.00;;;;;;5129159;28;20027;-67
2023/06/02 07:00:54;;;;;;;2.05;1.80;;;20.70;1.00;;;;;;5129831;28;20093;-67
2023/06/02 07:03:26;;;;;;;2.70;1.98;;;21.10;1.00;;;;;;5164479;28;20047;-67
2023/06/02 07:06:04;;;;;;;2.33;2.13;;;21.10;1.00;;;;;;5197127;28;20052;-66
2023/06/02 07:08:41;;;;;;;2.72;2.05;;;20.90;1.00;;;;;;5108975;28;20037;-68
2023/06/02 07:11:13;;;;;;;2.78;1.98;;;21.20;1.00;;;;;;5123867;28;20039;-67
2023/06/02 07:13:47;;;;;;;3.10;2.15;;;21.30;1.00;;;;;;5134913;28;20075;-68
2023/06/02 07:16:21;;;;;;;;;;;21.60;1.00;;;;;;5176007;28;20634;-67
2023/06/02 07:18:54;;;;;;;1.90;1.70;;;21.80;1.00;;;;;;5117001;28;20286;-68
2023/06/02 07:21:25;;;;;;;3.08;2.42;;;22.10;1.00;;;;;;5091846;28;20043;-68
2023/06/02 07:23:57;;;;;;;2.90;2.13;;;22.80;1.00;;;;;;5157985;28;20079;-68
2023/06/02 07:26:31;;;;;;;2.15;1.92;;;22.90;1.00;;;;;;5129193;28;20046;-69
2023/06/02 07:29:05;;;;;;;;;;;23.00;1.00;;;;;;5150307;28;20049;-69
2023/06/02 07:31:39;;;;;;;2.75;2.35;;;23.70;1.00;;;;;;5136889;28;19911;-68
2023/06/02 07:34:11;;;;;;;1.88;1.60;;;23.50;99.90;;;;;;5159754;28;20048;-68
2023/06/02 07:36:47;;;;;;;2.72;2.22;;;23.20;99.90;;;;;;5139223;28;20042;-69
2023/06/02 07:39:19;;;;;;;2.67;2.13;;;22.80;99.90;;;;;;5087255;28;20122;-68
2023/06/02 07:41:50;;;;;;;2.33;2.00;;;22.80;99.90;;;;;;5084434;29;20037;-67
2023/06/02 07:44:21;;;;;;;2.00;1.67;;;23.00;99.90;;;;;;5208998;28;20037;-68
2023/06/02 07:46:53;;;;;;;4.30;2.67;;;23.10;99.90;;;;;;5103363;28;20034;-69
2023/06/02 07:49:24;;;;;;;3.13;1.95;;;23.10;99.90;;;;;;5085213;28;20951;-68
2023/06/02 07:51:58;;;;;;;6.32;2.20;;;23.30;99.90;;;;;;5113252;28;20042;-68
2023/06/02 07:54:29;;;;;;;2.63;1.95;;;23.20;99.90;;;;;;5160757;28;20061;-68
2023/06/02 07:57:00;;;;;;;2.60;2.10;;;23.00;99.90;;;;;;5131360;28;20031;-67
2023/06/02 07:59:35;;;;;;;2.72;1.85;;;23.00;99.90;;;;;;5140436;28;20431;-68
2023/06/02 08:02:06;;;;;;;2.70;1.92;;;23.60;99.90;;;;;;5188117;28;20043;-68
2023/06/02 08:04:37;;;;;;;2.30;2.10;;;24.10;1.00;;;;;;5096267;28;20046;-67
2023/06/02 08:07:08;;;;;;;2.65;1.80;;;24.60;99.90;;;;;;5089422;29;20035;-68
2023/06/02 08:09:40;;;;;;;2.40;2.00;;;24.50;99.90;;;;;;5138196;28;20103;-69
2023/06/02 08:12:11;;;;;;;3.25;2.65;;;23.50;99.90;;;;;;5125889;28;20564;-68
2023/06/02 08:14:42;;;;;;;3.75;2.08;;;23.20;99.90;;;;;;5106795;28;20043;-67
2023/06/02 08:17:13;;;;;;;2.15;1.88;;;22.80;99.90;;;;;;5118441;28;20031;-68
2023/06/02 08:19:47;;;;;;;2.63;2.33;;;23.30;99.90;;;;;;5119791;28;20041;-67
2023/06/02 08:22:21;;;;;;;2.55;1.80;;;23.60;99.90;;;;;;5106335;28;20046;-67
2023/06/02 08:24:53;;;;;;;2.85;1.95;;;23.90;99.90;;;;;;5108745;29;20027;-67
2023/06/02 08:27:24;;;;;;;4.53;2.90;;;23.90;99.90;;;;;;5115179;28;20500;-68
2023/06/02 08:29:59;;;;;;;2.58;2.38;;;23.60;99.90;;;;;;5138705;28;20030;-67
2023/06/02 08:32:31;;;;;;;2.97;2.13;;;23.50;99.90;;;;;;5101821;28;20044;-69
2023/06/02 08:35:02;;;;;;;2.47;2.05;;;23.70;99.90;;;;;;5116106;28;20043;-68
2023/06/02 08:37:33;;;;;;;2.40;2.20;;;23.60;99.90;;;;;;5172236;28;20067;-68
2023/06/02 08:40:05;;;;;;;3.00;2.05;;;23.90;99.90;;;;;;5114380;28;20155;-68
2023/06/02 08:42:39;;;;;;;3.47;1.83;;;24.30;99.90;;;;;;5127730;28;20043;-67
2023/06/02 08:45:10;;;;;;;2.80;2.30;;;24.30;99.90;;;;;;5121677;28;20047;-68
2023/06/02 08:47:44;;;;;;;3.17;2.10;;;24.50;99.90;;;;;;5186048;28;20051;-70
2023/06/02 08:50:18;;;;;;;2.83;2.23;;;24.40;99.90;;;;;;5129070;28;20039;-68
2023/06/02 08:52:53;;;;;;;4.75;2.78;;;24.20;99.90;;;;;;5098550;28;20308;-67
2023/06/02 08:55:27;;;;;;;3.85;2.30;;;24.10;99.90;;;;;;5095496;28;20035;-69
2023/06/02 08:58:04;;;;;;;4.10;2.15;;;24.00;99.90;;;;;;5121043;28;20041;-68
2023/06/02 09:00:35;;;;;;;2.92;2.38;;;24.40;99.90;;;;;;5113850;28;20390;-68
2023/06/02 09:03:07;;;;;;;2.13;1.75;;;24.50;99.90;;;;;;5149753;28;20033;-68
2023/06/02 09:05:41;;;;;;;2.67;2.17;;;24.80;99.90;;;;;;5165250;28;20483;-68
2023/06/02 09:08:13;;;;;;;;;;;24.80;99.90;;;;;;5135298;28;20054;-68
2023/06/02 09:10:50;;;;;;;2.92;1.75;;;24.40;99.90;;;;;;5129289;28;19908;-69
2023/06/02 09:13:36;;;;;;;2.65;2.30;;;24.70;99.90;;;;;;5196513;28;20048;-69
2023/06/02 09:16:08;;;;;;;3.55;2.47;;;25.40;99.90;;;;;;5093101;28;20638;-69
2023/06/02 09:18:53;;;;;;;2.25;2.05;;;25.10;99.90;;;;;;5190255;28;20054;-69
2023/06/02 09:21:32;;;;;;;6.53;2.08;;;25.20;99.90;;;;;;5119620;28;20049;-68
2023/06/02 09:24:09;;;;;;;3.58;2.40;;;25.60;99.90;;;;;;5121484;28;20023;-68
2023/06/02 09:26:50;;;;;;;2.33;1.92;;;25.60;99.90;;;;;;5123803;28;20032;-69
2023/06/02 09:29:22;;;;;;;2.60;2.25;;;25.80;99.90;;;;;;5102212;28;20049;-69
2023/06/02 09:31:53;;;;;;;2.40;1.83;;;25.70;99.90;;;;;;5143207;28;20041;-69
2023/06/02 09:34:36;;;;;;;3.92;2.42;;;26.20;99.90;;;;;;5127460;28;20087;-69
2023/06/02 09:37:11;;;;;;;3.08;2.13;;;26.20;99.90;;;;;;5168349;28;20051;-69
2023/06/02 09:39:46;;;;;;;4.10;1.92;;;26.40;99.90;;;;;;5173111;28;20043;-69
2023/06/02 09:42:24;;;;;;;2.72;2.00;;;26.00;99.90;;;;;;5149219;28;20053;-68
2023/06/02 09:45:12;;;;;;;3.17;2.20;;;25.90;99.90;;;;;;5123642;28;20259;-68
2023/06/02 09:47:43;;;;;;;4.30;2.35;;;26.10;99.90;;;;;;5193915;28;20065;-68
2023/06/02 09:50:37;;;;;;;2.22;1.85;;;26.40;99.90;;;;;;5103728;28;20411;-68
2023/06/02 09:53:11;;;;;;;4.10;2.40;;;26.30;99.90;;;;;;5119179;28;20050;-68
2023/06/02 09:55:43;;;;;;;3.83;2.25;;;26.20;99.90;;;;;;5098577;28;20051;-68
2023/06/02 09:58:19;;;;;;;2.33;1.90;;;26.20;99.90;;;;;;5122686;28;20043;-68
2023/06/02 10:00:53;;;;;;;2.72;2.08;;;26.00;99.90;;;;;;5123148;28;20033;-68
2023/06/02 10:03:24;;;;;;;3.17;1.98;;;26.80;99.90;;;;;;5119199;28;20053;-68
2023/06/02 10:06:20;;;;;;;1.63;1.52;;;26.80;99.90;;;;;;5176866;28;20243;-67
2023/06/02 10:09:03;;;;;;;3.08;2.08;;;26.90;1.00;;;;;;5072331;28;20514;-67
2023/06/02 10:12:05;;;;;;;2.45;1.90;;;26.90;1.00;;;;;;5108591;28;20039;-68
2023/06/02 10:14:53;;;;;;;2.78;2.00;;;26.30;1.00;;;;;;5051682;29;20041;-68
2023/06/02 10:17:37;;;;;;;2.95;1.92;;;26.60;6.40;;;;;;5062634;28;20585;-69
2023/06/02 10:20:20;;;;;;;2.33;1.65;;;27.50;18.50;;;;;;5156553;28;20051;-67
2023/06/02 10:23:00;;;;;;;3.03;1.83;;;27.90;1.00;;;;;;5091405;28;20058;-67
2023/06/02 10:26:00;;;;;;;3.38;2.47;;;28.00;1.00;;;;;;5123243;28;20146;-68
2023/06/02 10:28:35;;;;;;;3.40;2.40;;;28.60;1.00;;;;;;5162833;28;20045;-68
2023/06/02 10:31:11;;;;;;;2.30;1.90;;;28.50;1.00;;;;;;5105038;28;20035;-68
2023/06/02 10:33:45;;;;;;;1.85;1.60;;;28.40;65.80;;;;;;5107041;28;20034;-69
2023/06/02 10:36:20;;;;;;;2.13;1.75;;;28.60;38.90;;;;;;5098852;28;20477;-68
2023/06/02 10:38:55;;;;;;;3.35;1.92;;;28.90;99.90;;;;;;5124935;28;20463;-68
2023/06/02 10:42:12;;;;;;;1.90;1.67;;;28.90;30.80;;;;;;5107781;28;20047;-68
2023/06/02 10:44:44;;;;;;;2.53;1.90;;;28.70;99.90;;;;;;5104926;28;20645;-67
2023/06/02 10:47:18;;;;;;;2.67;1.95;;;29.80;86.40;;;;;;5119611;28;20049;-68
2023/06/02 10:50:04;;;;;;;3.05;2.10;;;30.20;99.90;;;;;;5202892;28;20046;-68
2023/06/02 10:53:05;;;;;;;2.55;1.75;;;30.40;99.90;;;;;;5195538;28;20039;-68
2023/06/02 10:55:38;;;;;;;3.10;1.88;;;30.20;99.90;;;;;;5131587;28;20545;-68
2023/06/02 10:58:12;;;;;;;3.00;2.53;;;29.90;99.90;;;;;;5144160;28;20041;-67
2023/06/02 11:00:45;;;;;;;4.40;2.17;;;29.60;99.90;;;;;;5097687;28;20057;-68
2023/06/02 11:03:38;;;;;;;2.20;1.88;;;29.10;99.90;;;;;;5124558;28;20049;-68
2023/06/02 11:06:22;;;;;;;1.77;1.60;;;29.30;1.00;;;;;;5200362;28;20116;-67
2023/06/02 11:08:58;;;;;;;5.03;2.22;;;29.00;29.90;;;;;;5127032;28;20550;-68
2023/06/02 11:11:49;;;;;;;2.50;1.80;;;29.70;99.90;;;;;;5162743;28;20043;-68
2023/06/02 11:14:21;;;;;;;1.95;1.75;;;29.00;99.90;;;;;;5110003;28;20039;-68
2023/06/02 11:17:34;;;;;;;2.67;1.85;;;29.80;99.90;;;;;;5156287;28;20035;-67
2023/06/02 11:20:06;;;;;;;4.85;2.00;;;29.70;99.90;;;;;;5120450;28;20057;-68
2023/06/02 11:22:38;;;;;;;2.03;1.67;;;30.00;99.90;;;;;;5114705;28;20061;-68
2023/06/02 11:25:10;;;;;;;2.53;1.80;;;29.40;1.00;;;;;;5116279;28;20360;-70
2023/06/02 11:27:48;;;;;;;2.65;2.25;;;30.30;99.90;;;;;;5124635;28;20023;-68
2023/06/02 11:30:19;;;;;;;1.85;1.60;;;29.60;1.00;;;;;;5120264;28;20046;-68
2023/06/02 11:32:51;;;;;;;2.47;1.73;;;29.80;30.20;;;;;;5122978;28;20037;-69
2023/06/02 11:35:27;;;;;;;3.10;1.67;;;30.00;1.00;;;;;;5121141;28;20016;-68
2023/06/02 11:38:08;;;;;;;2.45;1.75;;;31.00;60.00;;;;;;5127235;28;20109;-68
2023/06/02 11:40:39;;;;;;;3.50;2.10;;;31.20;1.00;;;;;;5115817;28;20691;-68
2023/06/02 11:43:21;;;;;;;3.17;1.75;;;30.20;1.00;;;;;;5122155;28;20049;-68
2023/06/02 11:46:03;;;;;;;1.98;1.65;;;29.00;1.00;;;;;;5121920;28;20046;-68
2023/06/02 11:48:38;;;;;;;2.58;1.92;;;29.70;1.00;;;;;;5114047;28;20031;-69
2023/06/02 11:51:15;;;;;;;2.60;1.80;;;30.90;1.00;;;;;;5125674;28;20396;-69
2023/06/02 11:54:02;;;;;;;4.53;1.90;;;31.00;1.00;;;;;;5156695;28;20033;-68
2023/06/02 11:56:36;;;;;;;2.72;1.65;;;30.40;1.00;;;;;;5128322;28;20027;-71
2023/06/02 11:59:15;;;;;;;2.10;1.90;;;30.50;1.00;;;;;;5114181;28;20512;-69
2023/06/02 12:01:48;;;;;;;3.63;2.47;;;31.30;1.00;;;;;;5132074;28;20047;-69
2023/06/02 12:04:19;;;;;;;2.50;1.92;;;30.70;1.00;;;;;;5100109;28;20035;-69
2023/06/02 12:06:52;;;;;;;4.72;2.00;;;30.40;1.00;;;;;;5126531;28;20648;-68
2023/06/02 12:09:29;;;;;;;1.95;1.70;;;31.50;1.00;;;;;;5121394;28;20199;-68
2023/06/02 12:12:07;;;;;;;3.25;2.10;;;32.20;1.00;;;;;;5100638;29;20037;-68
2023/06/02 12:14:38;;;;;;;3.17;2.00;;;32.30;1.00;;;;;;5095172;28;20079;-68
2023/06/02 12:17:12;;;;;;;2.80;2.08;;;32.80;1.00;;;;;;5116756;28;20027;-67
2023/06/02 12:19:43;;;;;;;2.92;2.15;;;34.00;1.00;;;;;;5123650;28;20535;-67
2023/06/02 12:22:16;;;;;;;2.40;2.03;;;33.70;1.00;;;;;;5100700;28;20203;-68
2023/06/02 12:24:52;;;;;;;1.95;1.73;;;34.50;1.00;;;;;;5127136;28;20031;-69
2023/06/02 12:27:26;;;;;;;2.83;2.05;;;34.30;1.00;;;;;;5088391;28;20104;-70
2023/06/02 12:29:57;;;;;;;3.22;2.13;;;32.50;1.00;;;;;;5099832;28;20066;-69
2023/06/02 12:32:29;;;;;;;4.97;2.25;;;33.20;1.00;;;;;;5125152;28;20030;-69
2023/06/02 12:35:03;;;;;;;2.47;2.25;;;33.90;1.00;;;;;;5116191;28;20060;-68
2023/06/02 12:37:39;;;;;;;2.92;1.95;;;32.90;1.00;;;;;;5104116;29;20033;-69
2023/06/02 12:40:13;;;;;;;3.53;2.60;;;31.60;1.00;;;;;;5094483;28;20054;-69
2023/06/02 12:42:44;;;;;;;3.03;1.67;;;31.90;1.00;;;;;;5156888;28;20028;-69
2023/06/02 12:45:18;;;;;;;4.80;2.15;;;32.40;1.00;;;;;;5175679;28;20022;-69
2023/06/02 12:47:52;;;;;;;2.58;2.10;;;32.90;1.00;;;;;;5137710;28;20035;-68
2023/06/02 12:50:24;;;;;;;2.80;1.90;;;30.80;1.00;;;;;;5096763;28;20031;-67
2023/06/02 12:53:03;;;;;;;3.13;2.20;;;31.50;1.00;;;;;;5079792;28;20020;-69
2023/06/02 12:55:34;;;;;;;2.42;2.00;;;32.40;1.00;;;;;;5128931;28;20033;-69
2023/06/02 12:58:05;;;;;;;2.70;1.90;;;31.40;1.00;;;;;;5137026;28;20022;-68
2023/06/02 13:00:39;;;;;;;2.65;2.35;;;31.70;1.00;;;;;;5168750;28;20044;-69
2023/06/02 13:03:11;;;;;;;4.57;1.80;;;32.60;1.00;;;;;;5142049;28;20062;-70
2023/06/02 13:05:58;;;;;;;2.75;2.28;;;32.00;1.00;;;;;;5147258;28;20042;-67
2023/06/02 13:08:37;;;;;;;2.83;1.83;;;30.60;1.00;;;;;;5125589;28;20223;-68
2023/06/02 13:11:09;;;;;;;2.00;1.63;;;31.50;1.00;;;;;;5089309;28;20049;-68
2023/06/02 13:13:40;;;;;;;2.53;2.00;;;32.70;1.00;;;;;;5141248;28;20030;-69
2023/06/02 13:16:15;;;;;;;2.63;1.80;;;33.10;1.00;;;;;;5125808;28;20089;-68
2023/06/02 13:18:47;;;;;;;2.88;2.00;;;33.90;1.00;;;;;;5101669;28;20332;-68
2023/06/02 13:21:21;;;;;;;1.95;1.75;;;34.10;1.00;;;;;;5175988;28;20035;-70
2023/06/02 13:23:52;;;;;;;;;;;33.70;1.00;;;;;;5101033;28;20042;-68
2023/06/02 13:26:26;;;;;;;3.97;2.50;;;32.00;1.00;;;;;;5106275;28;19909;-68
2023/06/02 13:28:57;;;;;;;4.72;2.75;;;30.90;1.00;;;;;;5133733;28;20031;-69
2023/06/02 13:31:29;;;;;;;3.78;2.15;;;31.80;1.00;;;;;;5157528;28;20057;-69
2023/06/02 13:34:03;;;;;;;3.63;2.13;;;33.50;1.00;;;;;;5127965;28;20054;-70
2023/06/02 13:36:35;;;;;;;4.50;2.40;;;33.50;1.00;;;;;;5167987;28;20054;-68